world map with CAB marked

CAB - Airport

This information may not be accurate or current and is not valid for navigation or flight planning. No warranty of fitness for any purpose is made or implied.

flag of Angola

Donate via PayPal

Additional information is available on the NEW Great Circle Mapper

Location
City:  Cabinda, Cabinda, Angola
ICAO / IATA:FNCA / CAB

Details
Type:Airport (Aerodrome, Airfield)
Use:Public/Civil
Latitude:5°35'49"S (-5.596991)
Longitude:12°11'18"E (12.188353)
Datum:WGS 1984
Elevation:66 ft (20 m)
Runways:1
Longest:8202 × 98 ft (2500 × 30 m)

Time
Timezone:UTC+1 (DST+3)
Local Time:

Weather
METAR:FNCA  041300Z 25005KT 9999 FEW010 BKN080 27/24 Q1011
TAF:FNCA  032330Z 0400/0412 VRB03KT 5000 TSRA BKN015 FEW025CB BECMG 0410/0412 7000 -TSRA FEW010CB OVC020

Related Locations
Nearby:
Farthest:PLPA: 12055 mi / 19400 km
Palmyra Island Atoll [Palmyra Airport (Cooper)], UM

Find:

   beyond  
but within

Other Information
Maps:
Sources:

  


 


Great Circle Mapper   Great Circle Mapper
Great Circle Mapper FAQ   Great Circle Mapper FAQ
  Karl's Home Page
KLSē   KLSē Home
   GC on Facebook
Airlines of the World   Airlines of the World
Donate via PayPal


Copyright © 2004-2020, Karl L. Swartz. All rights reserved.
All trademarks mentioned herein belong to their respective owners.

Please see credits for attribution and copyright information.

Karl Swartz <karl@kls2.com>
  Powered by FreeBSD
Valid HTML 4.01!
Labeled with ICRA
hCard Microformat
Geo Microformat